Airfield :
LOGIN :

Register | Disclaimer

   EN    FR    IT 

 










Legend :    VFR   Marginal VFR   IFR   Intensive IFR   Very Intensive IFR
Visi :
Ceiling :
>= 8 km
>= 3000ft
5 to 8 km
1000 to 3000 ft
1500m to 5 km
500 to 1000 ft
800 to 1500m
200 to 500 ft
< 800m
< 200 ft
Symbols :   Thunderstorms  Fog  Heavy snow  Heavy precipitations  Wind > 20 kt
SIGMETs :     Misc.  Thunderstorms  Icing  Turbulence  Mountain Waves  Volcanic Ashes







- Airport Elevation : 1046 ft
- IATA code : NUE


EDDN - Nuremberg

CURRENT METAR :
  • 200850Z 25009KT 9999 FEW015 SCT025 BKN070 03/00 Q1021 NOSIG

EXPIRED METARs :
  • 200820Z 25011KT 9999 FEW015 BKN023 03/00 Q1021 NOSIG
  • 200750Z 25009KT 9999 FEW015 BKN020 03/00 Q1021 NOSIG
  • 200720Z 24009KT 9999 BKN017 03/00 Q1021 NOSIG
  • 200650Z 24008KT 9999 BKN016 BKN040 03/01 Q1021 NOSIG
  • 200620Z 26007KT 9999 BKN016 03/01 Q1020 NOSIG

TAF COR TAF EDDN
Valid from the 20 at 06:00 until the 21 at 06:00 UTC


200517Z 2006/2106 26010KT 9999 SCT015 BKN030
TEMPO 2015/2106 RA
TEMPO 2021/2106 27015G25KT BKN012
No reported NOTAMs for that airfield.



MET'MAP, your aeronautical weather chart ! - Copyright ORBIFLY December 2007 - Disclaimer

ORBIFLY MET'MAP TEAM :

Programming & Development : Alexandra Zaïnal
Concept & Development : Baudouin d'Aumeries
Co-Development & Prog : Marc-Olivier Méhu
Technical & hardware support : Manuel Goepfert

Contact : metmap@orbifly.com




SOURCES & CREDITS :

   NOAA